createdAt,value
2023-02-08T00:02:11.396Z,103731.59
2023-02-08T00:04:37.731Z,103729.28
2023-02-08T00:07:04.330Z,103734.28
2023-02-08T00:09:30.654Z,103734.28
2023-02-08T00:11:57.022Z,103727.00
2023-02-08T00:14:23.357Z,103724.13
2023-02-08T00:16:49.719Z,103731.38
2023-02-08T00:19:16.123Z,103727.75
2023-02-08T00:21:42.463Z,103722.75
2023-02-08T00:24:08.818Z,103731.59
2023-02-08T00:26:35.130Z,103728.50
2023-02-08T00:29:01.463Z,103722.75
2023-02-08T00:31:27.848Z,103725.44
2023-02-08T00:33:54.246Z,103723.91
2023-02-08T00:36:20.563Z,103725.25
2023-02-08T00:38:46.876Z,103722.19
2023-02-08T00:41:13.732Z,103722.97
2023-02-08T00:43:40.072Z,103720.84
2023-02-08T00:46:07.971Z,103721.63
2023-02-08T00:48:34.301Z,103717.97
2023-02-08T00:51:01.323Z,103718.75
2023-02-08T00:53:27.679Z,103721.63
2023-02-08T00:55:54.288Z,103721.81
2023-02-08T00:58:20.639Z,103726.03
2023-02-08T01:00:47.233Z,103724.69
2023-02-08T01:03:13.629Z,103728.13
2023-02-08T01:05:39.951Z,103730.81
2023-02-08T01:08:06.274Z,103725.06
2023-02-08T01:10:32.678Z,103724.88
2023-02-08T01:12:59.060Z,103716.25
2023-02-08T01:15:25.412Z,103713.38
2023-02-08T01:17:55.070Z,103713.38
2023-02-08T01:20:21.426Z,103717.78
2023-02-08T01:22:47.808Z,103717.78
2023-02-08T01:25:14.175Z,103715.09
2023-02-08T01:27:40.492Z,103723.53
2023-02-08T01:30:06.979Z,103714.91
2023-02-08T01:32:34.696Z,103712.03
2023-02-08T01:35:01.685Z,103714.72
2023-02-08T01:37:28.004Z,103713.97
2023-02-08T01:39:54.353Z,103708.00
2023-02-08T01:42:20.931Z,103711.66
2023-02-08T01:45:06.145Z,103708.59
2023-02-08T01:47:32.491Z,103711.66
2023-02-08T01:49:58.842Z,103705.91
2023-02-08T01:52:25.345Z,103708.22
2023-02-08T01:54:57.057Z,103711.84
2023-02-08T01:57:23.415Z,103709.72
2023-02-08T01:59:59.947Z,103714.72
2023-02-08T02:02:26.278Z,103710.47
2023-02-08T02:04:53.052Z,103714.72
2023-02-08T02:07:20.289Z,103707.44
2023-02-08T02:09:47.794Z,103705.91
2023-02-08T02:12:14.132Z,103705.91
2023-02-08T02:14:40.513Z,103699.75
2023-02-08T02:17:06.833Z,103707.06
2023-02-08T02:19:49.020Z,103698.44
2023-02-08T02:22:32.629Z,103707.06
2023-02-08T02:25:00.118Z,103723.72
2023-02-08T02:27:30.060Z,103708.59
2023-02-08T02:30:12.771Z,103713.56
2023-02-08T02:32:40.704Z,103729.47
2023-02-08T02:50:42.137Z,103723.38
2023-02-08T02:53:11.424Z,103725.47
2023-02-08T02:55:40.452Z,103727.00
2023-02-08T02:58:06.772Z,103717.03
2023-02-08T03:00:33.083Z,103723.56
2023-02-08T03:02:59.408Z,103717.81
2023-02-08T03:05:25.743Z,103717.03
2023-02-08T03:07:56.698Z,103720.69
2023-02-08T03:10:41.960Z,103715.50
2023-02-08T03:13:23.954Z,103721.25
2023-02-08T03:15:58.828Z,103718.19
2023-02-08T03:18:34.205Z,103712.44
2023-02-08T03:21:03.501Z,103714.34
2023-02-08T03:23:41.340Z,103711.66
2023-02-08T03:26:10.569Z,103706.50
2023-02-08T03:28:56.818Z,103712.44
2023-02-08T03:31:42.916Z,103723.19
2023-02-08T03:34:13.125Z,103722.59
2023-02-08T03:36:39.404Z,103719.72
2023-02-08T04:11:05.767Z,103728.34
2023-02-08T04:13:32.091Z,103723.19
2023-02-08T04:15:58.558Z,103719.53
2023-02-08T04:18:24.947Z,103717.22
2023-02-08T04:20:51.274Z,103707.84
2023-02-08T04:23:17.597Z,103712.06
2023-02-08T04:25:43.941Z,103710.72
2023-02-08T04:28:10.383Z,103712.81
2023-02-08T04:30:36.829Z,103710.13
2023-02-08T04:33:03.828Z,103727.97
2023-02-08T04:35:30.375Z,103720.13
2023-02-08T04:37:56.698Z,103716.66
2023-02-08T04:40:23.052Z,103710.91
2023-02-08T04:42:49.382Z,103716.06
2023-02-08T04:45:15.715Z,103713.94
2023-02-08T04:47:42.046Z,103717.63
2023-02-08T04:50:08.382Z,103714.75
2023-02-08T04:52:34.716Z,103721.25
2023-02-08T04:55:01.057Z,103721.25
2023-02-08T04:57:27.387Z,103722.00
2023-02-08T04:59:53.724Z,103720.31
2023-02-08T05:02:20.109Z,103719.72
2023-02-08T05:04:46.444Z,103725.47
2023-02-08T05:07:12.825Z,103720.31
2023-02-08T05:09:44.961Z,103716.66
2023-02-08T05:12:11.279Z,103715.88
2023-02-08T05:14:37.588Z,103715.88
2023-02-08T05:17:03.946Z,103715.13
2023-02-08T05:19:30.292Z,103717.22
2023-02-08T05:21:56.672Z,103718.00
2023-02-08T05:24:23.001Z,103710.91
2023-02-08T05:26:49.389Z,103710.91
2023-02-08T05:29:15.720Z,103720.31
2023-02-08T05:31:42.111Z,103718.19
2023-02-08T05:34:08.501Z,103713.94
2023-02-08T05:36:34.841Z,103723.94
2023-02-08T05:39:01.160Z,103724.69
2023-02-08T05:41:27.498Z,103716.66
2023-02-08T05:43:53.829Z,103722.41
2023-02-08T05:46:20.379Z,103728.19
2023-02-08T05:48:46.742Z,103725.09
2023-02-08T05:51:13.090Z,103720.13
2023-02-08T05:53:39.434Z,103727.03
2023-02-08T05:56:05.835Z,103726.25
2023-02-08T05:58:32.274Z,103728.72
2023-02-08T06:00:58.708Z,103729.47
2023-02-08T06:03:25.355Z,103724.72
2023-02-08T06:05:51.714Z,103737.59
2023-02-08T06:08:18.743Z,103737.72
2023-02-08T06:10:47.936Z,103737.91
2023-02-08T06:13:15.873Z,103745.22
2023-02-08T06:15:42.200Z,103744.84
2023-02-08T06:18:09.136Z,103747.75
2023-02-08T06:20:35.478Z,103755.41
2023-02-08T06:23:01.789Z,103744.09
2023-02-08T06:25:28.115Z,103739.88
2023-02-08T06:27:56.518Z,103747.72
2023-02-08T06:30:23.727Z,103750.03
2023-02-08T06:32:50.063Z,103744.28
2023-02-08T06:35:16.448Z,103742.75
2023-02-08T06:37:42.799Z,103760.00
2023-02-08T06:40:18.109Z,103753.47
2023-02-08T06:42:44.452Z,103757.13
2023-02-08T06:45:13.542Z,103760.75
2023-02-08T06:47:40.038Z,103757.13
2023-02-08T06:50:06.483Z,103767.47
2023-02-08T06:52:32.827Z,103755.78
2023-02-08T06:54:59.183Z,103757.13
2023-02-08T06:57:25.530Z,103763.06
2023-02-08T06:59:51.857Z,103771.13
2023-02-08T07:02:19.037Z,103769.97
2023-02-08T07:04:45.515Z,103774.97
2023-02-08T07:07:12.254Z,103769.97
2023-02-08T07:09:38.592Z,103775.72
2023-02-08T07:12:05.299Z,103771.31
2023-02-08T07:14:35.355Z,103762.69
2023-02-08T07:17:01.848Z,103761.16
2023-02-08T07:19:28.367Z,103764.59
2023-02-08T07:22:03.083Z,103752.31
2023-02-08T07:24:29.437Z,103757.31
2023-02-08T07:26:55.817Z,103762.50
2023-02-08T07:29:22.146Z,103757.28
2023-02-08T07:31:48.490Z,103766.72
2023-02-08T07:34:16.934Z,103762.69
2023-02-08T07:36:43.272Z,103764.19
2023-02-08T07:39:09.612Z,103766.50
2023-02-08T07:41:35.937Z,103768.81
2023-02-08T07:44:02.256Z,103772.66
2023-02-08T07:46:28.629Z,103773.41
2023-02-08T07:48:54.985Z,103771.28
2023-02-08T07:51:21.320Z,103768.41
2023-02-08T07:53:47.651Z,103779.94
2023-02-08T07:56:13.986Z,103775.53
2023-02-08T07:58:40.336Z,103782.41
2023-02-08T08:01:20.967Z,103787.41
2023-02-08T08:03:48.840Z,103782.41
2023-02-08T08:06:15.232Z,103784.53
2023-02-08T08:08:42.336Z,103790.28
2023-02-08T08:11:08.682Z,103783.00
2023-02-08T08:13:35.011Z,103796.81
2023-02-08T08:16:01.399Z,103801.03
2023-02-08T08:18:27.778Z,103801.81
2023-02-08T08:20:54.109Z,103800.28
2023-02-08T08:23:20.452Z,103801.81
2023-02-08T08:25:46.772Z,103794.16
2023-02-08T08:28:13.271Z,103792.03
2023-02-08T08:30:42.566Z,103797.41
2023-02-08T08:33:09.071Z,103800.06
2023-02-08T08:35:35.419Z,103794.53
2023-02-08T08:38:01.785Z,103798.75
2023-02-08T08:40:28.145Z,103796.81
2023-02-08T08:42:54.485Z,103794.91
2023-02-08T08:45:20.837Z,103784.94
2023-02-08T08:47:47.282Z,103778.41
2023-02-08T08:50:13.627Z,103786.47
2023-02-08T08:52:40.257Z,103779.94
2023-02-08T08:55:06.859Z,103765.00
2023-02-08T08:57:33.205Z,103766.50
2023-02-08T08:59:59.556Z,103769.38
2023-02-08T09:02:25.953Z,103760.75
2023-02-08T09:04:52.303Z,103760.75
2023-02-08T09:07:18.814Z,103766.69
2023-02-08T09:09:47.934Z,103768.03
2023-02-08T09:12:15.631Z,103768.03
2023-02-08T09:14:42.263Z,103772.25
2023-02-08T09:17:08.624Z,103772.66
2023-02-08T09:19:34.945Z,103756.16
2023-02-08T09:22:01.299Z,103767.47
2023-02-08T09:24:27.622Z,103773.44
2023-02-08T09:26:53.966Z,103776.50
2023-02-08T09:29:20.292Z,103775.91
2023-02-08T09:31:46.780Z,103789.72
2023-02-08T09:34:13.241Z,103792.59
2023-02-08T09:36:39.731Z,103789.16
2023-02-08T09:39:07.594Z,103789.16
2023-02-08T09:41:54.835Z,103784.16
2023-02-08T09:44:28.046Z,103778.59
2023-02-08T09:46:56.778Z,103777.84
2023-02-08T09:49:24.439Z,103777.25
2023-02-08T09:51:54.210Z,103767.28
2023-02-08T09:54:26.065Z,103765.72
2023-02-08T09:56:52.389Z,103760.75
2023-02-08T09:59:21.167Z,103751.34
2023-02-08T10:01:48.164Z,103748.28
2023-02-08T10:04:32.675Z,103743.13
2023-02-08T10:06:59.011Z,103741.59
2023-02-08T10:09:25.885Z,103736.41
2023-02-08T10:11:54.138Z,103739.28
2023-02-08T10:14:27.437Z,103731.25
2023-02-08T10:17:18.854Z,103722.22
2023-02-08T10:19:55.625Z,103723.97
2023-02-08T10:22:24.846Z,103720.88
2023-02-08T10:24:55.958Z,103713.94
2023-02-08T10:27:37.438Z,103716.81
2023-02-08T10:30:20.532Z,103720.69
2023-02-08T10:32:51.127Z,103706.31
2023-02-08T10:35:36.870Z,103712.22
2023-02-08T10:38:11.444Z,103707.06
2023-02-08T10:40:38.170Z,103702.81
2023-02-08T10:43:16.093Z,103701.31
2023-02-08T10:45:48.859Z,103696.31
2023-02-08T10:48:16.008Z,103702.81
2023-02-08T10:50:43.070Z,103695.75
2023-02-08T10:53:12.986Z,103690.19
2023-02-08T10:55:39.479Z,103686.72
2023-02-08T10:58:05.844Z,103687.47
2023-02-08T11:00:34.423Z,103698.97
2023-02-08T11:03:01.906Z,103693.22
2023-02-08T11:05:37.439Z,103686.72
2023-02-08T11:08:04.583Z,103673.69
2023-02-08T11:10:30.952Z,103673.69
2023-02-08T11:12:57.247Z,103673.69
2023-02-08T11:15:24.947Z,103675.78
2023-02-08T11:17:55.019Z,103675.00
2023-02-08T11:20:22.334Z,103665.44
2023-02-08T11:22:48.693Z,103661.03
2023-02-08T11:25:30.135Z,103666.38
2023-02-08T11:27:56.474Z,103670.59
2023-02-08T11:30:23.515Z,103670.59
2023-02-08T11:32:50.580Z,103669.78
2023-02-08T11:35:21.640Z,103666.72
2023-02-08T11:37:48.298Z,103670.34
2023-02-08T11:40:40.682Z,103662.91
2023-02-08T11:43:07.930Z,103666.75
2023-02-08T11:45:35.016Z,103659.44
2023-02-08T11:48:07.367Z,103667.88
2023-02-08T11:50:34.512Z,103654.09
2023-02-08T11:53:01.536Z,103659.06
2023-02-08T11:55:28.639Z,103658.50
2023-02-08T11:58:00.762Z,103658.50
2023-02-08T12:00:28.046Z,103652.19
2023-02-08T12:02:56.679Z,103659.44
2023-02-08T12:05:24.636Z,103656.16
2023-02-08T12:08:05.671Z,103657.50
2023-02-08T12:10:50.981Z,103654.44
2023-02-08T12:13:23.656Z,103659.03
2023-02-08T12:15:58.868Z,103653.28
2023-02-08T12:18:34.473Z,103651.75
2023-02-08T12:21:04.370Z,103655.97
2023-02-08T12:23:43.218Z,103658.66
2023-02-08T12:26:28.231Z,103657.50
2023-02-08T12:29:07.260Z,103661.53
2023-02-08T12:31:38.551Z,103669.97
2023-02-08T12:34:07.824Z,103673.28
2023-02-08T12:36:43.244Z,103673.84
2023-02-08T12:39:46.517Z,103669.78
2023-02-08T12:42:31.508Z,103673.03
2023-02-08T12:45:09.788Z,103669.59
2023-02-08T12:48:03.778Z,103667.66
2023-02-08T12:50:36.082Z,103654.03
2023-02-08T12:53:03.310Z,103659.22
2023-02-08T12:55:36.603Z,103663.63
2023-02-08T12:58:21.577Z,103658.66
2023-02-08T13:00:47.934Z,103650.78
2023-02-08T13:03:22.891Z,103650.78
2023-02-08T13:06:01.713Z,103649.41
2023-02-08T13:08:30.045Z,103635.78
2023-02-08T13:11:05.482Z,103645.19
2023-02-08T13:13:37.876Z,103649.59
2023-02-08T13:16:09.446Z,103641.72
2023-02-08T13:18:46.478Z,103634.03
2023-02-08T13:21:13.940Z,103625.56
2023-02-08T13:23:52.563Z,103624.25
2023-02-08T13:26:20.995Z,103619.06
2023-02-08T13:28:48.088Z,103611.38
2023-02-08T13:31:15.884Z,103617.13
2023-02-08T13:34:00.820Z,103625.75
2023-02-08T13:36:37.625Z,103621.38
2023-02-08T13:39:05.092Z,103609.84
2023-02-08T13:41:31.696Z,103603.91
2023-02-08T13:43:58.830Z,103601.03
2023-02-08T13:46:25.944Z,103601.03
2023-02-08T13:48:53.299Z,103595.28
2023-02-08T13:51:28.625Z,103598.91
2023-02-08T13:53:54.923Z,103592.41
2023-02-08T13:56:43.042Z,103594.53
2023-02-08T13:59:25.489Z,103589.53
2023-02-08T14:02:10.486Z,103601.78
2023-02-08T14:04:37.654Z,103605.25
2023-02-08T14:07:06.618Z,103599.47
2023-02-08T14:09:51.797Z,103596.44
2023-02-08T14:12:23.877Z,103597.97
2023-02-08T14:15:06.482Z,103586.47
2023-02-08T14:17:32.802Z,103589.16
2023-02-08T14:19:59.874Z,103578.56
2023-02-08T14:22:26.734Z,103574.94
2023-02-08T14:25:16.566Z,103580.69
2023-02-08T14:27:43.273Z,103577.81
2023-02-08T14:30:30.006Z,103572.06
2023-02-08T14:33:08.557Z,103569.19
2023-02-08T14:35:39.383Z,103561.13
2023-02-08T14:38:23.788Z,103559.22
2023-02-08T14:40:53.722Z,103559.81
2023-02-08T14:43:19.991Z,103564.59
2023-02-08T14:45:50.038Z,103571.88
2023-02-08T14:48:17.856Z,103568.06
2023-02-08T14:51:03.152Z,103561.53
2023-02-08T14:53:31.881Z,103558.66
2023-02-08T14:55:59.434Z,103555.03
2023-02-08T14:58:27.092Z,103552.16
2023-02-08T15:00:53.750Z,103546.38
2023-02-08T15:03:20.109Z,103554.59
2023-02-08T15:05:49.417Z,103551.38
2023-02-08T15:08:19.270Z,103537.16
2023-02-08T15:10:45.939Z,103540.03
2023-02-08T15:13:17.349Z,103545.78
2023-02-08T15:15:43.889Z,103538.50
2023-02-08T15:18:18.924Z,103527.00
2023-02-08T15:20:45.639Z,103521.25
2023-02-08T15:23:21.993Z,103515.50
2023-02-08T15:26:01.422Z,103518.56
2023-02-08T15:28:29.318Z,103514.13
2023-02-08T15:30:56.749Z,103506.25
2023-02-08T15:33:23.092Z,103506.25
2023-02-08T15:35:58.583Z,103511.25
2023-02-08T15:38:24.911Z,103511.25
2023-02-08T15:41:03.780Z,103499.75
2023-02-08T15:43:30.169Z,103499.75
2023-02-08T15:45:57.124Z,103499.75
2023-02-08T15:48:23.527Z,103492.66
2023-02-08T15:50:50.241Z,103494.75
2023-02-08T15:53:16.696Z,103484.00
2023-02-08T15:55:50.640Z,103490.53
2023-02-08T15:58:35.828Z,103495.53
2023-02-08T16:01:02.434Z,103482.47
2023-02-08T16:03:29.141Z,103486.72
2023-02-08T16:05:56.230Z,103492.47
2023-02-08T16:08:24.153Z,103495.91
2023-02-08T16:10:52.848Z,103490.72
2023-02-08T16:13:26.342Z,103487.84
2023-02-08T16:16:00.817Z,103496.50
2023-02-08T16:18:33.576Z,103490.72
2023-02-08T16:21:00.256Z,103493.63
2023-02-08T16:23:27.268Z,103488.47
2023-02-08T16:25:53.602Z,103483.66
2023-02-08T16:28:22.767Z,103483.66
2023-02-08T16:30:49.269Z,103485.16
2023-02-08T16:33:15.653Z,103489.41
2023-02-08T16:35:41.988Z,103475.78
2023-02-08T16:38:10.070Z,103490.91
2023-02-08T16:40:49.773Z,103487.84
2023-02-08T16:43:16.032Z,103492.84
2023-02-08T16:45:42.352Z,103492.09
2023-02-08T16:48:28.780Z,103484.81
2023-02-08T16:50:55.232Z,103487.69
2023-02-08T16:53:24.181Z,103487.53
2023-02-08T16:55:50.563Z,103488.28
2023-02-08T16:58:16.873Z,103476.78
2023-02-08T17:00:43.534Z,103478.88
2023-02-08T17:03:10.113Z,103473.13
2023-02-08T17:05:37.003Z,103477.53
2023-02-08T17:08:03.808Z,103471.78
2023-02-08T17:10:31.025Z,103471.78
2023-02-08T17:13:13.330Z,103477.53
2023-02-08T17:15:44.477Z,103480.41
2023-02-08T17:18:11.032Z,103473.41
2023-02-08T17:20:37.376Z,103473.09
2023-02-08T17:23:03.977Z,103478.03
2023-02-08T17:25:30.390Z,103469.16
2023-02-08T17:27:57.879Z,103466.84
2023-02-08T17:30:25.493Z,103471.81
2023-02-08T17:32:51.917Z,103473.66
2023-02-08T17:35:18.330Z,103461.97
2023-02-08T17:37:45.149Z,103465.66
2023-02-08T17:40:11.865Z,103460.50
2023-02-08T17:42:38.184Z,103443.81
2023-02-08T17:45:04.531Z,103463.78
2023-02-08T17:47:30.859Z,103461.06
2023-02-08T17:49:57.187Z,103459.72
2023-02-08T17:52:23.512Z,103455.31
2023-02-08T17:54:49.833Z,103449.56
2023-02-08T17:57:16.234Z,103445.94
2023-02-08T17:59:42.563Z,103441.50
2023-02-08T18:02:08.901Z,103436.53
2023-02-08T18:04:35.312Z,103442.88
2023-02-08T18:07:01.641Z,103431.94
2023-02-08T18:09:28.333Z,103436.38
2023-02-08T18:11:54.673Z,103429.06
2023-02-08T18:14:20.996Z,103423.31
2023-02-08T18:16:47.333Z,103429.06
2023-02-08T18:19:13.658Z,103430.59
2023-02-08T18:21:39.990Z,103430.59
2023-02-08T18:24:06.386Z,103429.25
2023-02-08T18:26:35.724Z,103426.38
2023-02-08T18:29:02.086Z,103421.97
2023-02-08T18:31:28.489Z,103417.72
2023-02-08T18:33:54.955Z,103418.50
2023-02-08T18:36:21.415Z,103406.22
2023-02-08T18:38:48.420Z,103408.91
2023-02-08T18:41:18.908Z,103403.16
2023-02-08T18:43:45.281Z,103389.38
2023-02-08T18:46:12.550Z,103384.38
2023-02-08T18:48:38.982Z,103387.09
2023-02-08T18:51:05.582Z,103379.22
2023-02-08T18:53:32.766Z,103375.75
2023-02-08T18:55:59.692Z,103377.09
2023-02-08T18:58:26.029Z,103369.81
2023-02-08T19:00:52.572Z,103370.56
2023-02-08T19:03:19.179Z,103365.56
2023-02-08T19:05:45.694Z,103366.38
2023-02-08T19:08:12.115Z,103354.06
2023-02-08T19:10:38.873Z,103355.63
2023-02-08T19:13:07.462Z,103355.78
2023-02-08T19:15:37.135Z,103347.75
2023-02-08T19:18:03.879Z,103346.97
2023-02-08T19:20:30.210Z,103348.31
2023-02-08T19:22:56.545Z,103340.28
2023-02-08T19:25:22.914Z,103328.00
2023-02-08T19:27:49.685Z,103326.47
2023-02-08T19:30:17.108Z,103330.13
2023-02-08T19:32:43.436Z,103321.50
2023-02-08T19:35:09.906Z,103326.47
2023-02-08T19:37:36.369Z,103327.41
2023-02-08T19:40:05.698Z,103319.38
2023-02-08T19:42:32.047Z,103323.06
2023-02-08T19:44:58.378Z,103312.69
2023-02-08T19:47:43.399Z,103320.56
2023-02-08T19:50:12.336Z,103320.09
2023-02-08T19:52:42.755Z,103311.44
2023-02-08T19:55:09.711Z,103304.63
2023-02-08T19:57:39.917Z,103295.47
2023-02-08T20:00:11.296Z,103290.50
2023-02-08T20:02:44.121Z,103297.41
2023-02-08T20:05:10.444Z,103289.13
2023-02-08T20:07:36.801Z,103290.81
2023-02-08T20:10:03.205Z,103291.97
2023-02-08T20:12:29.576Z,103290.03
2023-02-08T20:14:55.895Z,103290.34
2023-02-08T20:17:22.228Z,103291.31
2023-02-08T20:19:48.568Z,103291.03
2023-02-08T20:22:14.916Z,103281.03
2023-02-08T20:24:41.246Z,103290.47
2023-02-08T20:27:07.589Z,103292.91
2023-02-08T20:29:33.939Z,103303.94
2023-02-08T20:32:00.434Z,103299.28
2023-02-08T20:34:26.908Z,103291.28
2023-02-08T20:37:06.189Z,103285.53
2023-02-08T20:39:33.521Z,103284.47
2023-02-08T20:41:59.861Z,103286.25
2023-02-08T20:44:28.339Z,103280.75
2023-02-08T20:46:54.916Z,103274.72
2023-02-08T20:49:25.193Z,103278.53
2023-02-08T20:51:52.471Z,103275.47
2023-02-08T20:54:19.625Z,103267.00
2023-02-08T20:56:45.948Z,103258.19
2023-02-08T20:59:13.712Z,103256.28
2023-02-08T21:01:40.230Z,103259.69
2023-02-08T21:04:06.683Z,103263.09
2023-02-08T21:06:33.894Z,103264.91
2023-02-08T21:09:01.827Z,103244.72
2023-02-08T21:11:28.604Z,103248.88
2023-02-08T21:13:55.050Z,103251.94
2023-02-08T21:16:21.378Z,103254.28
2023-02-08T21:18:47.704Z,103259.34
2023-02-08T21:21:15.008Z,103261.06
2023-02-08T21:23:41.378Z,103257.47
2023-02-08T21:26:07.830Z,103254.59
2023-02-08T21:28:34.216Z,103246.28
2023-02-08T21:31:01.565Z,103243.75
2023-02-08T21:33:28.015Z,103234.53
2023-02-08T21:35:54.343Z,103234.09
2023-02-08T21:38:20.672Z,103238.34
2023-02-08T21:40:47.177Z,103231.66
2023-02-08T21:43:13.785Z,103235.88
2023-02-08T21:45:40.205Z,103224.97
2023-02-08T21:48:06.613Z,103223.44
2023-02-08T21:50:51.455Z,103215.81
2023-02-08T21:53:36.416Z,103216.16
2023-02-08T21:56:02.749Z,103206.16
2023-02-08T21:58:29.087Z,103205.94
2023-02-08T22:00:55.404Z,103200.41
2023-02-08T22:03:21.772Z,103191.44
2023-02-08T22:06:06.542Z,103184.16
2023-02-08T22:08:32.865Z,103192.03
2023-02-08T22:11:04.535Z,103187.03
2023-02-08T22:13:31.940Z,103185.53
2023-02-08T22:15:59.267Z,103180.94
2023-02-08T22:18:26.135Z,103183.66
2023-02-08T22:20:52.637Z,103185.59
2023-02-08T22:23:18.985Z,103177.56
2023-02-08T22:25:45.312Z,103176.03
2023-02-08T22:28:11.691Z,103176.78
2023-02-08T22:30:38.093Z,103178.31
2023-02-08T22:33:04.454Z,103173.91
2023-02-08T22:35:30.803Z,103170.44
2023-02-08T22:37:57.149Z,103167.56
2023-02-08T22:40:23.482Z,103168.34
2023-02-08T22:42:49.896Z,103168.34
2023-02-08T22:45:16.221Z,103164.88
2023-02-08T22:47:42.572Z,103163.34
2023-02-08T22:50:08.943Z,103149.13
2023-02-08T22:52:35.297Z,103166.38
2023-02-08T22:55:03.895Z,103153.38
2023-02-08T22:57:33.510Z,103154.88
2023-02-08T22:59:59.864Z,103155.47
2023-02-08T23:02:26.232Z,103140.16
2023-02-08T23:04:52.636Z,103142.88
2023-02-08T23:07:18.973Z,103138.63
2023-02-08T23:09:45.468Z,103138.47
2023-02-08T23:12:11.821Z,103137.69
2023-02-08T23:14:38.150Z,103142.69
2023-02-08T23:17:04.480Z,103143.47
2023-02-08T23:19:30.845Z,103147.09
2023-02-08T23:21:57.696Z,103134.25
2023-02-08T23:24:24.117Z,103131.94
2023-02-08T23:26:50.439Z,103143.47
2023-02-08T23:29:16.784Z,103133.31
2023-02-08T23:31:43.208Z,103139.66
2023-02-08T23:34:11.356Z,103136.59
2023-02-08T23:36:37.687Z,103148.13
2023-02-08T23:39:04.390Z,103136.59
2023-02-08T23:41:30.983Z,103125.09
2023-02-08T23:43:57.345Z,103120.09
2023-02-08T23:46:24.243Z,103113.59
2023-02-08T23:48:50.670Z,103117.97
2023-02-08T23:51:17.361Z,103117.97
2023-02-08T23:53:43.742Z,103115.09
2023-02-08T23:56:10.000Z,103125.28
2023-02-08T23:58:36.341Z,103130.25
